sensor_id;sensor_type;location;lat;lon;timestamp;pressure;altitude;pressure_sealevel;temperature;humidity
7532;BME280;3807;49.030;8.714;2024-03-02T00:00:20;98161.47;;;8.82;71.37
7532;BME280;3807;49.030;8.714;2024-03-02T00:02:48;98161.38;;;8.84;71.76
7532;BME280;3807;49.030;8.714;2024-03-02T00:05:16;98156.53;;;8.79;71.70
7532;BME280;3807;49.030;8.714;2024-03-02T00:07:43;98155.84;;;8.76;71.84
7532;BME280;3807;49.030;8.714;2024-03-02T00:10:10;98162.63;;;8.75;72.28
7532;BME280;3807;49.030;8.714;2024-03-02T00:12:37;98163.59;;;8.73;72.10
7532;BME280;3807;49.030;8.714;2024-03-02T00:15:05;98160.00;;;8.77;71.76
7532;BME280;3807;49.030;8.714;2024-03-02T00:17:39;98158.50;;;8.73;71.52
7532;BME280;3807;49.030;8.714;2024-03-02T00:20:09;98148.97;;;8.78;71.57
7532;BME280;3807;49.030;8.714;2024-03-02T00:22:35;98153.47;;;8.71;71.98
7532;BME280;3807;49.030;8.714;2024-03-02T00:25:03;98156.09;;;8.70;71.97
7532;BME280;3807;49.030;8.714;2024-03-02T00:27:28;98149.25;;;8.72;71.33
7532;BME280;3807;49.030;8.714;2024-03-02T00:29:54;98149.38;;;8.69;71.85
7532;BME280;3807;49.030;8.714;2024-03-02T00:32:20;98148.56;;;8.68;71.98
7532;BME280;3807;49.030;8.714;2024-03-02T00:34:46;98140.41;;;8.62;72.07
7532;BME280;3807;49.030;8.714;2024-03-02T00:37:11;98142.03;;;8.63;71.84
7532;BME280;3807;49.030;8.714;2024-03-02T00:39:37;98141.16;;;8.64;71.93
7532;BME280;3807;49.030;8.714;2024-03-02T00:42:02;98143.50;;;8.68;71.92
7532;BME280;3807;49.030;8.714;2024-03-02T00:44:28;98146.22;;;8.64;71.91
7532;BME280;3807;49.030;8.714;2024-03-02T00:47:00;98156.53;;;8.79;70.19
7532;BME280;3807;49.030;8.714;2024-03-02T00:49:26;98147.66;;;8.88;70.35
7532;BME280;3807;49.030;8.714;2024-03-02T00:51:54;98162.34;;;8.63;71.49
7532;BME280;3807;49.030;8.714;2024-03-02T00:54:29;98146.91;;;8.67;70.70
7532;BME280;3807;49.030;8.714;2024-03-02T00:56:55;98155.41;;;8.47;71.33
7532;BME280;3807;49.030;8.714;2024-03-02T00:59:22;98152.78;;;8.49;71.83
7532;BME280;3807;49.030;8.714;2024-03-02T01:01:48;98146.69;;;8.53;72.16
7532;BME280;3807;49.030;8.714;2024-03-02T01:04:17;98157.75;;;8.52;71.77
7532;BME280;3807;49.030;8.714;2024-03-02T01:06:42;98161.72;;;8.57;72.26
7532;BME280;3807;49.030;8.714;2024-03-02T01:09:08;98152.41;;;8.77;69.81
7532;BME280;3807;49.030;8.714;2024-03-02T01:11:33;98156.53;;;8.79;69.92
7532;BME280;3807;49.030;8.714;2024-03-02T01:13:59;98146.50;;;8.76;69.89
7532;BME280;3807;49.030;8.714;2024-03-02T01:16:24;98149.84;;;8.96;69.29
7532;BME280;3807;49.030;8.714;2024-03-02T01:18:49;98158.44;;;8.55;70.59
7532;BME280;3807;49.030;8.714;2024-03-02T01:21:15;98157.53;;;8.56;70.47
7532;BME280;3807;49.030;8.714;2024-03-02T01:23:40;98153.66;;;8.68;70.03
7532;BME280;3807;49.030;8.714;2024-03-02T01:26:06;98153.97;;;8.61;70.45
7532;BME280;3807;49.030;8.714;2024-03-02T01:28:32;98155.00;;;8.56;70.77
7532;BME280;3807;49.030;8.714;2024-03-02T01:30:57;98157.63;;;8.55;70.16
7532;BME280;3807;49.030;8.714;2024-03-02T01:33:23;98156.41;;;8.43;70.85
7532;BME280;3807;49.030;8.714;2024-03-02T01:35:48;98152.44;;;8.38;71.11
7532;BME280;3807;49.030;8.714;2024-03-02T01:38:13;98147.13;;;8.63;70.47
7532;BME280;3807;49.030;8.714;2024-03-02T01:40:39;98152.31;;;8.78;69.76
7532;BME280;3807;49.030;8.714;2024-03-02T01:43:05;98156.03;;;8.71;69.86
7532;BME280;3807;49.030;8.714;2024-03-02T01:45:31;98151.50;;;8.59;70.54
7532;BME280;3807;49.030;8.714;2024-03-02T01:47:57;98150.06;;;8.53;69.94
7532;BME280;3807;49.030;8.714;2024-03-02T01:50:27;98151.09;;;8.49;70.88
7532;BME280;3807;49.030;8.714;2024-03-02T01:52:54;98137.44;;;8.71;69.55
7532;BME280;3807;49.030;8.714;2024-03-02T01:55:20;98134.16;;;8.69;69.24
7532;BME280;3807;49.030;8.714;2024-03-02T01:57:46;98144.53;;;8.83;68.64
7532;BME280;3807;49.030;8.714;2024-03-02T02:00:13;98143.19;;;8.74;68.94
7532;BME280;3807;49.030;8.714;2024-03-02T02:02:38;98139.78;;;8.75;69.14
7532;BME280;3807;49.030;8.714;2024-03-02T02:05:04;98139.38;;;8.66;69.63
7532;BME280;3807;49.030;8.714;2024-03-02T02:07:29;98140.31;;;8.44;70.25
7532;BME280;3807;49.030;8.714;2024-03-02T02:09:55;98139.38;;;8.66;69.64
7532;BME280;3807;49.030;8.714;2024-03-02T02:12:20;98136.16;;;8.62;69.45
7532;BME280;3807;49.030;8.714;2024-03-02T02:14:49;98132.25;;;8.55;69.83
7532;BME280;3807;49.030;8.714;2024-03-02T02:17:15;98131.72;;;8.47;70.16
7532;BME280;3807;49.030;8.714;2024-03-02T02:19:41;98128.13;;;8.52;69.82
7532;BME280;3807;49.030;8.714;2024-03-02T02:22:06;98114.88;;;8.46;69.84
7532;BME280;3807;49.030;8.714;2024-03-02T02:24:32;98114.09;;;8.44;69.70
7532;BME280;3807;49.030;8.714;2024-03-02T02:26:57;98117.50;;;8.63;69.24
7532;BME280;3807;49.030;8.714;2024-03-02T02:29:22;98121.19;;;8.75;68.48
7532;BME280;3807;49.030;8.714;2024-03-02T02:31:48;98120.22;;;8.77;68.51
7532;BME280;3807;49.030;8.714;2024-03-02T02:34:14;98122.16;;;8.72;68.38
7532;BME280;3807;49.030;8.714;2024-03-02T02:36:40;98121.69;;;8.25;70.06
7532;BME280;3807;49.030;8.714;2024-03-02T02:39:07;98116.47;;;8.48;69.21
7532;BME280;3807;49.030;8.714;2024-03-02T02:41:34;98116.72;;;8.61;68.94
7532;BME280;3807;49.030;8.714;2024-03-02T02:43:59;98118.13;;;8.68;68.56
7532;BME280;3807;49.030;8.714;2024-03-02T02:46:24;98108.50;;;8.56;68.96
7532;BME280;3807;49.030;8.714;2024-03-02T02:48:50;98109.28;;;8.58;68.48
7532;BME280;3807;49.030;8.714;2024-03-02T02:51:18;98096.63;;;8.56;68.33
7532;BME280;3807;49.030;8.714;2024-03-02T02:53:43;98096.72;;;8.55;68.53
7532;BME280;3807;49.030;8.714;2024-03-02T02:56:09;98094.53;;;8.47;68.93
7532;BME280;3807;49.030;8.714;2024-03-02T02:58:34;98096.03;;;8.51;68.79
7532;BME280;3807;49.030;8.714;2024-03-02T03:01:00;98092.41;;;8.36;69.51
7532;BME280;3807;49.030;8.714;2024-03-02T03:03:26;98097.38;;;8.40;68.90
7532;BME280;3807;49.030;8.714;2024-03-02T03:05:51;98097.13;;;8.46;68.99
7532;BME280;3807;49.030;8.714;2024-03-02T03:08:16;98103.78;;;8.48;68.34
7532;BME280;3807;49.030;8.714;2024-03-02T03:10:42;98093.72;;;8.26;69.45
7532;BME280;3807;49.030;8.714;2024-03-02T03:13:07;98095.75;;;8.39;69.10
7532;BME280;3807;49.030;8.714;2024-03-02T03:15:34;98087.13;;;8.22;69.68
7532;BME280;3807;49.030;8.714;2024-03-02T03:18:02;98089.47;;;8.27;69.50
7532;BME280;3807;49.030;8.714;2024-03-02T03:20:28;98095.50;;;8.24;69.42
7532;BME280;3807;49.030;8.714;2024-03-02T03:22:54;98103.84;;;7.87;70.63
7532;BME280;3807;49.030;8.714;2024-03-02T03:25:19;98096.56;;;7.79;71.53
7532;BME280;3807;49.030;8.714;2024-03-02T03:27:44;98095.31;;;7.90;70.92
7532;BME280;3807;49.030;8.714;2024-03-02T03:30:11;98100.00;;;7.78;70.63
7532;BME280;3807;49.030;8.714;2024-03-02T03:32:36;98098.09;;;7.83;71.19
7532;BME280;3807;49.030;8.714;2024-03-02T03:35:03;98099.22;;;7.76;71.44
7532;BME280;3807;49.030;8.714;2024-03-02T03:37:29;98096.88;;;7.51;71.90
7532;BME280;3807;49.030;8.714;2024-03-02T03:39:58;98097.78;;;7.50;71.95
7532;BME280;3807;49.030;8.714;2024-03-02T03:42:23;98088.94;;;7.38;72.96
7532;BME280;3807;49.030;8.714;2024-03-02T03:44:49;98096.69;;;7.56;72.07
7532;BME280;3807;49.030;8.714;2024-03-02T03:47:14;98100.19;;;7.53;71.84
7532;BME280;3807;49.030;8.714;2024-03-02T03:49:39;98087.81;;;7.46;72.45
7532;BME280;3807;49.030;8.714;2024-03-02T03:52:05;98087.38;;;7.56;72.49
7532;BME280;3807;49.030;8.714;2024-03-02T03:54:30;98088.84;;;7.42;72.53
7532;BME280;3807;49.030;8.714;2024-03-02T03:56:55;98087.34;;;7.58;71.97
7532;BME280;3807;49.030;8.714;2024-03-02T03:59:21;98090.31;;;7.68;71.84
7532;BME280;3807;49.030;8.714;2024-03-02T04:01:46;98091.59;;;7.78;71.40
7532;BME280;3807;49.030;8.714;2024-03-02T04:04:12;98089.50;;;7.47;71.98
7532;BME280;3807;49.030;8.714;2024-03-02T04:06:37;98082.19;;;7.59;71.48
7532;BME280;3807;49.030;8.714;2024-03-02T04:09:02;98083.78;;;7.82;71.00
7532;BME280;3807;49.030;8.714;2024-03-02T04:11:29;98090.03;;;7.33;72.73
7532;BME280;3807;49.030;8.714;2024-03-02T04:13:55;98085.41;;;7.63;71.45
7532;BME280;3807;49.030;8.714;2024-03-02T04:16:21;98084.91;;;7.55;71.74
7532;BME280;3807;49.030;8.714;2024-03-02T04:18:46;98085.38;;;7.64;71.75
7532;BME280;3807;49.030;8.714;2024-03-02T04:21:11;98086.06;;;7.48;72.44
7532;BME280;3807;49.030;8.714;2024-03-02T04:23:37;98085.75;;;7.55;71.69
7532;BME280;3807;49.030;8.714;2024-03-02T04:26:02;98088.03;;;7.61;71.74
7532;BME280;3807;49.030;8.714;2024-03-02T04:28:27;98079.97;;;7.72;71.09
7532;BME280;3807;49.030;8.714;2024-03-02T04:30:53;98080.94;;;7.70;71.35
7532;BME280;3807;49.030;8.714;2024-03-02T04:33:18;98086.38;;;7.60;72.12
7532;BME280;3807;49.030;8.714;2024-03-02T04:35:43;98083.97;;;7.57;71.64
7532;BME280;3807;49.030;8.714;2024-03-02T04:38:09;98087.34;;;7.58;72.22
7532;BME280;3807;49.030;8.714;2024-03-02T04:40:34;98085.81;;;7.54;71.68
7532;BME280;3807;49.030;8.714;2024-03-02T04:42:59;98089.41;;;7.69;71.47
7532;BME280;3807;49.030;8.714;2024-03-02T04:45:25;98092.84;;;7.68;71.18
7532;BME280;3807;49.030;8.714;2024-03-02T04:47:50;98088.47;;;7.51;72.02
7532;BME280;3807;49.030;8.714;2024-03-02T04:50:15;98095.88;;;7.55;71.41
7532;BME280;3807;49.030;8.714;2024-03-02T04:52:41;98085.50;;;7.61;71.48
7532;BME280;3807;49.030;8.714;2024-03-02T04:55:06;98082.19;;;7.59;71.50
7532;BME280;3807;49.030;8.714;2024-03-02T04:57:50;98081.03;;;7.67;70.88
7532;BME280;3807;49.030;8.714;2024-03-02T05:00:16;98084.97;;;7.74;70.79
7532;BME280;3807;49.030;8.714;2024-03-02T05:02:42;98093.34;;;7.55;71.62
7532;BME280;3807;49.030;8.714;2024-03-02T05:05:07;98086.25;;;7.63;71.19
7532;BME280;3807;49.030;8.714;2024-03-02T05:07:33;98092.72;;;7.71;71.19
7532;BME280;3807;49.030;8.714;2024-03-02T05:09:58;98093.91;;;7.62;71.46
7532;BME280;3807;49.030;8.714;2024-03-02T05:12:24;98108.19;;;7.43;72.48
7532;BME280;3807;49.030;8.714;2024-03-02T05:15:07;98099.09;;;7.59;71.76
7532;BME280;3807;49.030;8.714;2024-03-02T05:17:33;98110.69;;;7.44;72.64
7532;BME280;3807;49.030;8.714;2024-03-02T05:19:58;98111.06;;;7.55;71.57
7532;BME280;3807;49.030;8.714;2024-03-02T05:22:24;98105.63;;;7.44;72.04
7532;BME280;3807;49.030;8.714;2024-03-02T05:24:49;98111.56;;;7.63;71.63
7532;BME280;3807;49.030;8.714;2024-03-02T05:27:15;98121.59;;;7.46;71.74
7532;BME280;3807;49.030;8.714;2024-03-02T05:29:40;98120.88;;;7.63;71.26
7532;BME280;3807;49.030;8.714;2024-03-02T05:32:06;98130.44;;;7.56;71.45
7532;BME280;3807;49.030;8.714;2024-03-02T05:34:31;98132.56;;;7.67;70.44
7532;BME280;3807;49.030;8.714;2024-03-02T05:36:58;98139.53;;;7.62;70.79
7532;BME280;3807;49.030;8.714;2024-03-02T05:39:23;98135.69;;;7.52;71.48
7532;BME280;3807;49.030;8.714;2024-03-02T05:41:49;98136.53;;;7.52;71.32
7532;BME280;3807;49.030;8.714;2024-03-02T05:44:14;98141.59;;;7.52;71.33
7532;BME280;3807;49.030;8.714;2024-03-02T05:46:40;98139.19;;;7.49;71.16
7532;BME280;3807;49.030;8.714;2024-03-02T05:49:06;98141.97;;;7.43;71.60
7532;BME280;3807;49.030;8.714;2024-03-02T05:51:33;98135.13;;;7.45;71.22
7532;BME280;3807;49.030;8.714;2024-03-02T05:53:58;98135.69;;;7.52;71.16
7532;BME280;3807;49.030;8.714;2024-03-02T05:56:23;98128.72;;;7.36;71.32
7532;BME280;3807;49.030;8.714;2024-03-02T05:58:49;98124.38;;;7.40;71.55
7532;BME280;3807;49.030;8.714;2024-03-02T06:01:37;98128.19;;;7.50;71.59
7532;BME280;3807;49.030;8.714;2024-03-02T06:04:02;98127.41;;;7.48;71.08
7532;BME280;3807;49.030;8.714;2024-03-02T06:06:28;98129.56;;;7.37;71.36
7532;BME280;3807;49.030;8.714;2024-03-02T06:08:53;98131.25;;;7.36;71.60
7532;BME280;3807;49.030;8.714;2024-03-02T06:11:19;98134.34;;;7.23;71.81
7532;BME280;3807;49.030;8.714;2024-03-02T06:13:45;98133.13;;;7.31;71.35
7532;BME280;3807;49.030;8.714;2024-03-02T06:16:10;98132.63;;;7.23;71.97
7532;BME280;3807;49.030;8.714;2024-03-02T06:18:35;98128.19;;;7.28;71.90
7532;BME280;3807;49.030;8.714;2024-03-02T06:21:01;98128.09;;;7.09;72.62
7532;BME280;3807;49.030;8.714;2024-03-02T06:23:27;98128.34;;;7.25;72.19
7532;BME280;3807;49.030;8.714;2024-03-02T06:25:52;98130.97;;;7.22;72.09
7532;BME280;3807;49.030;8.714;2024-03-02T06:28:18;98130.28;;;7.19;72.23
7532;BME280;3807;49.030;8.714;2024-03-02T06:30:43;98133.22;;;7.30;71.99
7532;BME280;3807;49.030;8.714;2024-03-02T06:33:09;98129.31;;;7.21;72.30
7532;BME280;3807;49.030;8.714;2024-03-02T06:35:34;98123.53;;;7.18;71.92
7532;BME280;3807;49.030;8.714;2024-03-02T06:38:00;98132.38;;;7.29;71.38
7532;BME280;3807;49.030;8.714;2024-03-02T06:40:26;98125.72;;;7.27;71.41
7532;BME280;3807;49.030;8.714;2024-03-02T06:42:51;98126.19;;;7.36;71.52
7532;BME280;3807;49.030;8.714;2024-03-02T06:45:16;98127.75;;;7.39;70.73
7532;BME280;3807;49.030;8.714;2024-03-02T06:47:42;98125.44;;;7.12;72.18
7532;BME280;3807;49.030;8.714;2024-03-02T06:50:08;98130.97;;;7.00;72.79
7532;BME280;3807;49.030;8.714;2024-03-02T06:52:34;98135.97;;;7.02;72.93
7532;BME280;3807;49.030;8.714;2024-03-02T06:54:59;98132.25;;;7.10;71.96
7532;BME280;3807;49.030;8.714;2024-03-02T06:57:25;98133.84;;;7.13;71.72
7532;BME280;3807;49.030;8.714;2024-03-02T06:59:50;98139.16;;;7.29;71.39
7532;BME280;3807;49.030;8.714;2024-03-02T07:02:19;98147.22;;;7.16;72.18
7532;BME280;3807;49.030;8.714;2024-03-02T07:04:44;98149.44;;;7.24;71.42
7532;BME280;3807;49.030;8.714;2024-03-02T07:07:10;98153.22;;;7.14;71.88
7532;BME280;3807;49.030;8.714;2024-03-02T07:09:36;98151.09;;;7.03;72.15
7532;BME280;3807;49.030;8.714;2024-03-02T07:12:01;98155.41;;;7.01;71.87
7532;BME280;3807;49.030;8.714;2024-03-02T07:14:26;98156.03;;;7.06;72.15
7532;BME280;3807;49.030;8.714;2024-03-02T07:17:12;98153.69;;;7.02;72.22
7532;BME280;3807;49.030;8.714;2024-03-02T07:19:38;98157.56;;;7.10;72.06
7532;BME280;3807;49.030;8.714;2024-03-02T07:22:06;98155.22;;;7.06;71.90
7532;BME280;3807;49.030;8.714;2024-03-02T07:24:31;98156.56;;;7.14;72.29
7532;BME280;3807;49.030;8.714;2024-03-02T07:26:56;98149.56;;;7.21;71.10
7532;BME280;3807;49.030;8.714;2024-03-02T07:29:22;98148.41;;;7.08;72.01
7532;BME280;3807;49.030;8.714;2024-03-02T07:31:47;98152.03;;;7.01;72.51
7532;BME280;3807;49.030;8.714;2024-03-02T07:34:13;98156.94;;;7.05;72.16
7532;BME280;3807;49.030;8.714;2024-03-02T07:36:38;98151.75;;;7.08;71.54
7532;BME280;3807;49.030;8.714;2024-03-02T07:39:04;98148.03;;;7.17;71.72
7532;BME280;3807;49.030;8.714;2024-03-02T07:41:29;98152.16;;;6.98;72.04
7532;BME280;3807;49.030;8.714;2024-03-02T07:43:54;98157.56;;;7.10;71.39
7532;BME280;3807;49.030;8.714;2024-03-02T07:46:20;98159.69;;;6.99;72.07
7532;BME280;3807;49.030;8.714;2024-03-02T07:48:45;98164.41;;;7.30;71.15
7532;BME280;3807;49.030;8.714;2024-03-02T07:51:10;98162.00;;;7.27;70.98
7532;BME280;3807;49.030;8.714;2024-03-02T07:53:36;98162.00;;;7.27;71.34
7532;BME280;3807;49.030;8.714;2024-03-02T07:56:01;98156.94;;;7.05;71.96
7532;BME280;3807;49.030;8.714;2024-03-02T07:58:27;98158.88;;;7.21;71.61
7532;BME280;3807;49.030;8.714;2024-03-02T08:00:53;98166.47;;;7.21;71.56
7532;BME280;3807;49.030;8.714;2024-03-02T08:03:18;98168.19;;;7.20;71.97
7532;BME280;3807;49.030;8.714;2024-03-02T08:05:44;98167.47;;;7.16;71.22
7532;BME280;3807;49.030;8.714;2024-03-02T08:08:09;98162.06;;;7.26;71.36
7532;BME280;3807;49.030;8.714;2024-03-02T08:10:35;98158.66;;;7.27;71.09
7532;BME280;3807;49.030;8.714;2024-03-02T08:13:00;98157.72;;;7.29;71.87
7532;BME280;3807;49.030;8.714;2024-03-02T08:15:26;98157.34;;;7.38;70.99
7532;BME280;3807;49.030;8.714;2024-03-02T08:17:51;98156.88;;;7.29;71.68
7532;BME280;3807;49.030;8.714;2024-03-02T08:20:17;98159.81;;;7.40;71.26
7532;BME280;3807;49.030;8.714;2024-03-02T08:22:42;98164.59;;;7.26;71.73
7532;BME280;3807;49.030;8.714;2024-03-02T08:25:08;98158.41;;;7.33;71.65
7532;BME280;3807;49.030;8.714;2024-03-02T08:27:33;98161.41;;;7.21;71.51
7532;BME280;3807;49.030;8.714;2024-03-02T08:29:59;98163.41;;;7.34;71.03
7532;BME280;3807;49.030;8.714;2024-03-02T08:32:24;98157.72;;;7.29;71.21
7532;BME280;3807;49.030;8.714;2024-03-02T08:34:49;98148.59;;;7.25;71.44
7532;BME280;3807;49.030;8.714;2024-03-02T08:37:15;98152.16;;;7.20;71.54
7532;BME280;3807;49.030;8.714;2024-03-02T08:39:40;98152.88;;;7.23;71.88
7532;BME280;3807;49.030;8.714;2024-03-02T08:42:06;98153.59;;;7.27;71.58
7532;BME280;3807;49.030;8.714;2024-03-02T08:44:31;98151.47;;;7.58;70.83
7532;BME280;3807;49.030;8.714;2024-03-02T08:46:58;98152.34;;;7.37;71.36
7532;BME280;3807;49.030;8.714;2024-03-02T08:49:23;98147.28;;;7.15;72.38
7532;BME280;3807;49.030;8.714;2024-03-02T08:51:49;98148.97;;;7.14;72.62
7532;BME280;3807;49.030;8.714;2024-03-02T08:54:23;98156.41;;;7.19;72.48
7532;BME280;3807;49.030;8.714;2024-03-02T08:56:51;98147.94;;;7.20;72.01
7532;BME280;3807;49.030;8.714;2024-03-02T08:59:16;98144.38;;;7.24;72.19
7532;BME280;3807;49.030;8.714;2024-03-02T09:01:42;98142.75;;;7.23;72.35
7532;BME280;3807;49.030;8.714;2024-03-02T09:04:08;98143.56;;;7.24;71.99
7532;BME280;3807;49.030;8.714;2024-03-02T09:06:34;98137.50;;;7.28;72.02
7532;BME280;3807;49.030;8.714;2024-03-02T09:08:59;98138.03;;;7.36;72.13
7532;BME280;3807;49.030;8.714;2024-03-02T09:11:24;98140.84;;;7.28;72.38
7532;BME280;3807;49.030;8.714;2024-03-02T09:13:50;98138.03;;;7.36;71.87
7532;BME280;3807;49.030;8.714;2024-03-02T09:16:15;98137.16;;;7.37;72.19
7532;BME280;3807;49.030;8.714;2024-03-02T09:18:41;98136.25;;;7.38;72.15
7532;BME280;3807;49.030;8.714;2024-03-02T09:21:06;98134.31;;;7.45;71.67
7532;BME280;3807;49.030;8.714;2024-03-02T09:23:33;98123.59;;;7.38;71.65
7532;BME280;3807;49.030;8.714;2024-03-02T09:25:58;98127.28;;;7.51;71.25
7532;BME280;3807;49.030;8.714;2024-03-02T09:28:24;98125.66;;;7.50;71.84
7532;BME280;3807;49.030;8.714;2024-03-02T09:30:49;98131.13;;;7.60;71.06
7532;BME280;3807;49.030;8.714;2024-03-02T09:33:14;98128.06;;;7.53;71.55
7532;BME280;3807;49.030;8.714;2024-03-02T09:35:40;98142.38;;;7.54;71.76
7532;BME280;3807;49.030;8.714;2024-03-02T09:38:05;98130.31;;;7.59;71.43
7532;BME280;3807;49.030;8.714;2024-03-02T09:40:30;98140.78;;;7.72;72.02
7532;BME280;3807;49.030;8.714;2024-03-02T09:42:56;98134.53;;;7.60;71.47
7532;BME280;3807;49.030;8.714;2024-03-02T09:45:23;98127.75;;;7.61;71.95
7532;BME280;3807;49.030;8.714;2024-03-02T09:47:50;98130.19;;;7.62;71.66
7532;BME280;3807;49.030;8.714;2024-03-02T09:50:15;98129.13;;;7.68;71.97
7532;BME280;3807;49.030;8.714;2024-03-02T09:52:48;98128.13;;;7.72;71.70
7532;BME280;3807;49.030;8.714;2024-03-02T09:55:14;98119.47;;;7.78;72.08
7532;BME280;3807;49.030;8.714;2024-03-02T09:57:41;98124.44;;;7.79;72.40
7532;BME280;3807;49.030;8.714;2024-03-02T10:00:08;98125.56;;;8.13;70.39
7532;BME280;3807;49.030;8.714;2024-03-02T10:02:33;98118.31;;;8.05;72.10
7532;BME280;3807;49.030;8.714;2024-03-02T10:04:58;98112.84;;;7.94;70.57
7532;BME280;3807;49.030;8.714;2024-03-02T10:07:24;98106.06;;;7.95;70.64
7532;BME280;3807;49.030;8.714;2024-03-02T10:09:49;98101.03;;;8.53;71.38
7532;BME280;3807;49.030;8.714;2024-03-02T10:12:17;98101.50;;;8.42;69.84
7532;BME280;3807;49.030;8.714;2024-03-02T10:14:44;98111.88;;;8.38;71.22
7532;BME280;3807;49.030;8.714;2024-03-02T10:17:11;98110.63;;;8.46;71.19
7532;BME280;3807;49.030;8.714;2024-03-02T10:19:37;98109.97;;;8.62;71.44
7532;BME280;3807;49.030;8.714;2024-03-02T10:22:05;98104.44;;;8.71;71.06
7532;BME280;3807;49.030;8.714;2024-03-02T10:24:41;98103.50;;;8.73;71.01
7532;BME280;3807;49.030;8.714;2024-03-02T10:27:17;98099.91;;;8.77;69.38
7532;BME280;3807;49.030;8.714;2024-03-02T10:29:45;98099.41;;;8.88;71.23
7532;BME280;3807;49.030;8.714;2024-03-02T10:32:12;98090.72;;;8.94;70.63
7532;BME280;3807;49.030;8.714;2024-03-02T10:34:40;98097.06;;;9.02;70.98
7532;BME280;3807;49.030;8.714;2024-03-02T10:37:06;98097.47;;;9.12;71.30
7532;BME280;3807;49.030;8.714;2024-03-02T10:39:35;98097.91;;;9.20;70.77
7532;BME280;3807;49.030;8.714;2024-03-02T10:42:07;98092.50;;;9.28;70.67
7532;BME280;3807;49.030;8.714;2024-03-02T10:44:33;98092.84;;;9.38;70.76
7532;BME280;3807;49.030;8.714;2024-03-02T10:47:02;98089.09;;;9.45;70.35
7532;BME280;3807;49.030;8.714;2024-03-02T10:49:31;98087.28;;;9.48;70.35
7532;BME280;3807;49.030;8.714;2024-03-02T10:52:00;98083.72;;;9.51;70.95
7532;BME280;3807;49.030;8.714;2024-03-02T10:54:26;98077.31;;;9.61;70.21
7532;BME280;3807;49.030;8.714;2024-03-02T10:56:53;98081.03;;;9.71;70.52
7532;BME280;3807;49.030;8.714;2024-03-02T11:01:55;98065.72;;;10.06;69.18
7532;BME280;3807;49.030;8.714;2024-03-02T11:04:21;98062.34;;;10.06;69.07
7532;BME280;3807;49.030;8.714;2024-03-02T11:06:50;98056.44;;;10.05;69.39
7532;BME280;3807;49.030;8.714;2024-03-02T11:09:19;98061.47;;;10.22;68.23
7532;BME280;3807;49.030;8.714;2024-03-02T11:11:48;98067.00;;;10.31;68.26
7532;BME280;3807;49.030;8.714;2024-03-02T11:14:17;98053.91;;;10.54;66.85
7532;BME280;3807;49.030;8.714;2024-03-02T11:16:46;98053.66;;;10.75;67.50
7532;BME280;3807;49.030;8.714;2024-03-02T11:19:14;98056.31;;;10.87;66.92
7532;BME280;3807;49.030;8.714;2024-03-02T11:21:40;98053.88;;;10.86;66.75
7532;BME280;3807;49.030;8.714;2024-03-02T11:26:47;98038.63;;;11.16;66.39
7532;BME280;3807;49.030;8.714;2024-03-02T11:32:16;98024.56;;;11.39;65.13
7532;BME280;3807;49.030;8.714;2024-03-02T11:34:44;98029.59;;;11.55;66.07
7532;BME280;3807;49.030;8.714;2024-03-02T11:37:11;98031.69;;;11.48;65.45
7532;BME280;3807;49.030;8.714;2024-03-02T11:39:38;98019.59;;;11.66;65.57
7532;BME280;3807;49.030;8.714;2024-03-02T11:42:06;98024.34;;;11.72;64.05
7532;BME280;3807;49.030;8.714;2024-03-02T11:44:36;98014.88;;;11.88;63.87
7532;BME280;3807;49.030;8.714;2024-03-02T11:47:05;98011.03;;;11.96;66.58
7532;BME280;3807;49.030;8.714;2024-03-02T11:49:50;98011.94;;;12.09;65.08
7532;BME280;3807;49.030;8.714;2024-03-02T11:52:20;98007.47;;;12.27;65.12
7532;BME280;3807;49.030;8.714;2024-03-02T11:54:47;98005.34;;;12.33;63.70
7532;BME280;3807;49.030;8.714;2024-03-02T11:57:15;97999.63;;;12.57;65.11
7532;BME280;3807;49.030;8.714;2024-03-02T11:59:41;97996.59;;;12.64;63.91
7532;BME280;3807;49.030;8.714;2024-03-02T12:02:06;97993.09;;;12.80;63.01
7532;BME280;3807;49.030;8.714;2024-03-02T12:04:38;97995.38;;;12.97;64.82
7532;BME280;3807;49.030;8.714;2024-03-02T12:07:03;97993.84;;;12.95;64.59
7532;BME280;3807;49.030;8.714;2024-03-02T12:09:28;97986.69;;;13.00;64.12
7532;BME280;3807;49.030;8.714;2024-03-02T12:12:08;97985.50;;;13.18;63.37
7532;BME280;3807;49.030;8.714;2024-03-02T12:14:38;97978.34;;;13.23;62.66
7532;BME280;3807;49.030;8.714;2024-03-02T12:17:06;97983.91;;;13.43;62.76
7532;BME280;3807;49.030;8.714;2024-03-02T12:19:32;97982.06;;;13.45;64.24
7532;BME280;3807;49.030;8.714;2024-03-02T12:21:59;97979.91;;;13.64;62.02
7532;BME280;3807;49.030;8.714;2024-03-02T12:24:26;97973.06;;;13.77;62.10
7532;BME280;3807;49.030;8.714;2024-03-02T12:26:52;97958.78;;;13.99;62.46
7532;BME280;3807;49.030;8.714;2024-03-02T12:29:19;97972.00;;;13.93;61.89
7532;BME280;3807;49.030;8.714;2024-03-02T12:31:48;97963.16;;;14.10;61.38
7532;BME280;3807;49.030;8.714;2024-03-02T12:34:15;97961.47;;;14.21;63.29
7532;BME280;3807;49.030;8.714;2024-03-02T12:36:41;97958.56;;;14.26;61.06
7532;BME280;3807;49.030;8.714;2024-03-02T12:39:10;97959.94;;;14.43;60.35
7532;BME280;3807;49.030;8.714;2024-03-02T12:41:36;97962.63;;;14.54;60.09
7532;BME280;3807;49.030;8.714;2024-03-02T12:44:03;97963.81;;;14.61;61.66
7532;BME280;3807;49.030;8.714;2024-03-02T12:46:28;97959.69;;;14.83;61.22
7532;BME280;3807;49.030;8.714;2024-03-02T12:48:53;97956.31;;;14.82;59.01
7532;BME280;3807;49.030;8.714;2024-03-02T12:51:19;97947.72;;;14.94;59.13
7532;BME280;3807;49.030;8.714;2024-03-02T12:53:44;97949.06;;;15.11;59.80
7532;BME280;3807;49.030;8.714;2024-03-02T12:56:10;97945.31;;;15.15;58.28
7532;BME280;3807;49.030;8.714;2024-03-02T12:58:39;97939.75;;;15.44;58.14
7532;BME280;3807;49.030;8.714;2024-03-02T13:01:07;97939.41;;;15.37;57.62
7532;BME280;3807;49.030;8.714;2024-03-02T13:03:41;97940.47;;;15.46;58.71
7532;BME280;3807;49.030;8.714;2024-03-02T13:06:07;97940.69;;;15.65;60.13
7532;BME280;3807;49.030;8.714;2024-03-02T13:08:33;97932.09;;;15.78;57.64
7532;BME280;3807;49.030;8.714;2024-03-02T13:10:59;97943.06;;;15.80;56.91
7532;BME280;3807;49.030;8.714;2024-03-02T13:13:24;97928.72;;;15.77;55.75
7532;BME280;3807;49.030;8.714;2024-03-02T13:15:50;97935.94;;;15.94;57.77
7532;BME280;3807;49.030;8.714;2024-03-02T13:18:17;97934.38;;;16.03;56.39
7532;BME280;3807;49.030;8.714;2024-03-02T13:20:43;97929.13;;;16.16;58.99
7532;BME280;3807;49.030;8.714;2024-03-02T13:23:08;97930.63;;;16.18;56.50
7532;BME280;3807;49.030;8.714;2024-03-02T13:25:35;97928.50;;;16.24;58.98
7532;BME280;3807;49.030;8.714;2024-03-02T13:28:00;97926.03;;;16.33;55.05
7532;BME280;3807;49.030;8.714;2024-03-02T13:30:26;97918.91;;;16.37;55.85
7532;BME280;3807;49.030;8.714;2024-03-02T13:32:51;97920.84;;;16.44;57.75
7532;BME280;3807;49.030;8.714;2024-03-02T13:35:18;97917.38;;;16.34;56.81